createdAt,value
2019-04-06T00:00:54.055Z,74
2019-04-06T00:01:56.191Z,74
2019-04-06T00:02:58.298Z,73
2019-04-06T00:04:00.838Z,73
2019-04-06T00:05:03.549Z,72
2019-04-06T00:06:05.747Z,71
2019-04-06T00:07:07.936Z,71
2019-04-06T00:08:10.422Z,71
2019-04-06T00:09:12.840Z,72
2019-04-06T00:10:15.351Z,72
2019-04-06T00:11:17.492Z,74
2019-04-06T00:12:19.601Z,73
2019-04-06T00:13:22.087Z,74
2019-04-06T00:14:24.248Z,74
2019-04-06T00:15:26.358Z,74
2019-04-06T00:16:28.493Z,74
2019-04-06T00:17:30.619Z,74
2019-04-06T00:18:32.761Z,74
2019-04-06T00:19:34.887Z,74
2019-04-06T00:20:37.045Z,74
2019-04-06T00:21:39.205Z,73
2019-04-06T00:22:41.392Z,73
2019-04-06T00:23:43.834Z,72
2019-04-06T00:24:46.356Z,73
2019-04-06T00:25:48.875Z,72
2019-04-06T00:26:50.995Z,72
2019-04-06T00:27:53.137Z,71
2019-04-06T00:28:55.262Z,71
2019-04-06T00:29:57.390Z,72
2019-04-06T00:30:59.518Z,72
2019-04-06T00:32:01.670Z,72
2019-04-06T00:33:04.120Z,74
2019-04-06T00:34:06.292Z,73
2019-04-06T00:35:08.416Z,73
2019-04-06T00:36:10.526Z,73
2019-04-06T00:37:12.668Z,73
2019-04-06T00:38:15.132Z,72
2019-04-06T00:39:17.318Z,72
2019-04-06T00:40:19.461Z,72
2019-04-06T00:41:22.144Z,72
2019-04-06T00:42:24.610Z,73
2019-04-06T00:43:27.300Z,74
2019-04-06T00:44:29.459Z,74
2019-04-06T00:45:31.845Z,73
2019-04-06T00:46:34.031Z,72
2019-04-06T00:47:36.544Z,72
2019-04-06T00:48:38.710Z,72
2019-04-06T00:49:40.853Z,72
2019-04-06T00:50:43.010Z,74
2019-04-06T00:51:45.227Z,73
2019-04-06T00:52:47.390Z,73
2019-04-06T00:53:49.544Z,72
2019-04-06T00:54:51.655Z,72
2019-04-06T00:55:57.428Z,72
2019-04-06T00:56:59.556Z,72
2019-04-06T00:58:01.673Z,72
2019-04-06T00:59:04.553Z,72
2019-04-06T01:00:06.690Z,72
2019-04-06T01:01:08.810Z,72
2019-04-06T01:02:11.424Z,72
2019-04-06T01:03:13.557Z,72
2019-04-06T01:04:15.981Z,73
2019-04-06T01:05:18.152Z,74
2019-04-06T01:06:20.630Z,74
2019-04-06T01:07:24.275Z,73
2019-04-06T01:08:26.394Z,72
2019-04-06T01:09:28.507Z,72
2019-04-06T01:10:30.694Z,72
2019-04-06T01:11:32.859Z,72
2019-04-06T01:12:34.973Z,73
2019-04-06T01:13:37.112Z,72
2019-04-06T01:14:39.222Z,73
2019-04-06T01:15:41.467Z,72
2019-04-06T01:16:43.604Z,72
2019-04-06T01:17:45.743Z,72
2019-04-06T01:18:47.955Z,72
2019-04-06T01:19:50.101Z,72
2019-04-06T01:20:52.989Z,72
2019-04-06T01:21:55.401Z,72
2019-04-06T01:22:57.557Z,72
2019-04-06T01:23:59.680Z,73
2019-04-06T01:25:02.142Z,72
2019-04-06T01:26:08.730Z,73
2019-04-06T01:27:10.990Z,73
2019-04-06T01:28:13.129Z,73
2019-04-06T01:29:15.281Z,73
2019-04-06T01:30:17.563Z,72
2019-04-06T01:31:19.667Z,72
2019-04-06T01:32:22.507Z,72
2019-04-06T01:33:24.632Z,71
2019-04-06T01:34:26.754Z,72
2019-04-06T01:35:28.909Z,71
2019-04-06T01:36:31.076Z,73
2019-04-06T01:37:33.560Z,73
2019-04-06T01:38:35.796Z,73
2019-04-06T01:39:37.987Z,74
2019-04-06T01:40:40.163Z,73
2019-04-06T01:41:42.431Z,73
2019-04-06T01:42:44.561Z,73
2019-04-06T01:43:47.037Z,74
2019-04-06T01:44:49.261Z,74
2019-04-06T01:45:51.423Z,74
2019-04-06T01:46:54.027Z,74
2019-04-06T01:47:56.206Z,73
2019-04-06T01:48:58.676Z,72
2019-04-06T01:50:00.798Z,73
2019-04-06T01:51:03.275Z,73
2019-04-06T01:52:05.376Z,74
2019-04-06T01:53:07.541Z,73
2019-04-06T01:54:09.669Z,74
2019-04-06T01:55:12.199Z,74
2019-04-06T01:56:19.967Z,75
2019-04-06T01:57:22.111Z,73
2019-04-06T01:58:24.331Z,73
2019-04-06T01:59:26.555Z,73
2019-04-06T02:00:28.743Z,72
2019-04-06T02:01:30.856Z,73
2019-04-06T02:02:32.986Z,73
2019-04-06T02:03:35.107Z,73
2019-04-06T02:04:37.503Z,72
2019-04-06T02:05:39.655Z,73
2019-04-06T02:06:41.810Z,73
2019-04-06T02:07:44.254Z,73
2019-04-06T02:08:46.416Z,72
2019-04-06T02:09:48.603Z,73
2019-04-06T02:10:50.821Z,73
2019-04-06T02:11:53.055Z,72
2019-04-06T02:12:55.153Z,72
2019-04-06T02:13:57.706Z,72
2019-04-06T02:14:59.791Z,72
2019-04-06T02:16:02.051Z,72
2019-04-06T02:17:04.442Z,73
2019-04-06T02:18:07.219Z,73
2019-04-06T02:19:09.314Z,72
2019-04-06T02:20:11.498Z,72
2019-04-06T02:21:13.994Z,72
2019-04-06T02:22:16.121Z,72
2019-04-06T02:23:18.243Z,74
2019-04-06T02:24:20.605Z,75
2019-04-06T02:25:22.931Z,76
2019-04-06T02:26:32.097Z,75
2019-04-06T02:27:34.233Z,73
2019-04-06T02:28:36.326Z,73
2019-04-06T02:29:38.553Z,73
2019-04-06T02:30:40.758Z,73
2019-04-06T02:31:43.201Z,73
2019-04-06T02:32:46.428Z,74
2019-04-06T02:33:49.142Z,74
2019-04-06T02:34:52.046Z,73
2019-04-06T02:35:54.414Z,74
2019-04-06T02:36:57.208Z,75
2019-04-06T02:37:59.737Z,75
2019-04-06T02:39:02.789Z,76
2019-04-06T02:40:09.637Z,75
2019-04-06T02:41:12.451Z,75
2019-04-06T02:42:14.581Z,74
2019-04-06T02:43:17.054Z,73
2019-04-06T02:44:19.891Z,74
2019-04-06T02:45:22.216Z,74
2019-04-06T02:46:24.335Z,73
2019-04-06T02:47:26.640Z,73
2019-04-06T02:48:28.776Z,73
2019-04-06T02:49:31.156Z,74
2019-04-06T02:50:33.690Z,74
2019-04-06T02:51:36.090Z,74
2019-04-06T02:52:39.157Z,75
2019-04-06T02:53:41.610Z,75
2019-04-06T02:54:44.422Z,74
2019-04-06T02:55:46.687Z,74
2019-04-06T02:56:49.083Z,74
2019-04-06T02:57:51.665Z,76
2019-04-06T02:58:54.132Z,75
2019-04-06T02:59:56.551Z,75
2019-04-06T03:00:59.140Z,75
2019-04-06T03:02:01.693Z,75
2019-04-06T03:03:04.185Z,76
2019-04-06T03:04:06.867Z,75
2019-04-06T03:05:09.026Z,75
2019-04-06T03:06:11.440Z,74
2019-04-06T03:07:14.142Z,73
2019-04-06T03:08:16.650Z,73
2019-04-06T03:09:19.224Z,74
2019-04-06T03:10:21.326Z,74
2019-04-06T03:11:24.172Z,74
2019-04-06T03:12:26.953Z,74
2019-04-06T03:13:29.101Z,74
2019-04-06T03:14:31.509Z,74
2019-04-06T03:15:33.922Z,75
2019-04-06T03:16:36.631Z,74
2019-04-06T03:17:38.845Z,75
2019-04-06T03:18:41.398Z,75
2019-04-06T03:19:44.115Z,75
2019-04-06T03:20:46.246Z,75
2019-04-06T03:21:48.848Z,76
2019-04-06T03:22:50.980Z,76
2019-04-06T03:23:53.786Z,75
2019-04-06T03:24:56.458Z,75
2019-04-06T03:25:59.129Z,75
2019-04-06T03:27:04.022Z,75
2019-04-06T03:28:06.672Z,75
2019-04-06T03:29:09.627Z,75
2019-04-06T03:30:12.866Z,75
2019-04-06T03:31:15.828Z,74
2019-04-06T03:32:18.551Z,75
2019-04-06T03:33:21.682Z,75
2019-04-06T03:34:24.631Z,75
2019-04-06T03:35:27.466Z,75
2019-04-06T03:36:29.822Z,75
2019-04-06T03:37:33.031Z,75
2019-04-06T03:38:35.276Z,75
2019-04-06T03:39:38.386Z,75
2019-04-06T03:40:40.785Z,75
2019-04-06T03:41:42.951Z,75
2019-04-06T03:42:45.681Z,75
2019-04-06T03:43:47.941Z,74
2019-04-06T03:44:50.999Z,73
2019-04-06T03:45:53.568Z,74
2019-04-06T03:46:56.619Z,75
2019-04-06T03:47:59.294Z,74
2019-04-06T03:49:01.426Z,74
2019-04-06T03:50:03.928Z,74
2019-04-06T03:51:06.320Z,74
2019-04-06T03:52:08.533Z,75
2019-04-06T03:53:10.783Z,74
2019-04-06T03:54:13.719Z,74
2019-04-06T03:55:16.119Z,74
2019-04-06T03:56:18.435Z,74
2019-04-06T03:57:20.726Z,75
2019-04-06T03:58:23.053Z,74
2019-04-06T03:59:25.567Z,74
2019-04-06T04:00:28.650Z,74
2019-04-06T04:01:31.416Z,74
2019-04-06T04:02:33.956Z,74
2019-04-06T04:03:36.464Z,74
2019-04-06T04:04:38.910Z,74
2019-04-06T04:05:41.348Z,74
2019-04-06T04:06:44.536Z,74
2019-04-06T04:07:47.195Z,74
2019-04-06T04:08:49.854Z,74
2019-04-06T04:09:52.325Z,75
2019-04-06T04:10:54.350Z,75
2019-04-06T04:11:56.691Z,75
2019-04-06T04:12:59.189Z,75
2019-04-06T04:14:01.554Z,76
2019-04-06T04:15:03.940Z,75
2019-04-06T04:16:06.259Z,75
2019-04-06T04:17:08.379Z,75
2019-04-06T04:18:10.647Z,74
2019-04-06T04:19:13.672Z,74
2019-04-06T04:20:16.209Z,75
2019-04-06T04:21:18.335Z,75
2019-04-06T04:22:20.769Z,75
2019-04-06T04:23:23.137Z,76
2019-04-06T04:24:25.715Z,75
2019-04-06T04:25:28.217Z,76
2019-04-06T04:26:30.510Z,75
2019-04-06T04:27:32.596Z,75
2019-04-06T04:28:35.426Z,74
2019-04-06T04:29:37.948Z,75
2019-04-06T04:30:40.593Z,74
2019-04-06T04:31:43.711Z,74
2019-04-06T04:32:46.679Z,75
2019-04-06T04:33:49.282Z,74
2019-04-06T04:34:51.630Z,75
2019-04-06T04:35:54.390Z,76
2019-04-06T04:36:56.426Z,75
2019-04-06T04:37:58.650Z,75
2019-04-06T04:39:01.160Z,75
2019-04-06T04:40:03.791Z,75
2019-04-06T04:41:06.455Z,74
2019-04-06T04:42:08.623Z,75
2019-04-06T04:43:11.091Z,74
2019-04-06T04:44:14.194Z,75
2019-04-06T04:45:16.454Z,74
2019-04-06T04:46:18.673Z,74
2019-04-06T04:47:21.048Z,74
2019-04-06T04:48:23.663Z,74
2019-04-06T04:49:25.959Z,75
2019-04-06T04:50:28.244Z,75
2019-04-06T04:51:30.675Z,74
2019-04-06T04:52:33.193Z,75
2019-04-06T04:53:35.268Z,74
2019-04-06T04:54:37.592Z,74
2019-04-06T04:55:39.877Z,74
2019-04-06T04:56:43.202Z,73
2019-04-06T04:57:46.735Z,73
2019-04-06T04:58:48.901Z,73
2019-04-06T04:59:51.097Z,73
2019-04-06T05:00:53.542Z,73
2019-04-06T05:01:55.885Z,73
2019-04-06T05:02:58.226Z,74
2019-04-06T05:04:00.334Z,74
2019-04-06T05:05:03.004Z,74
2019-04-06T05:06:05.155Z,73
2019-04-06T05:07:07.299Z,73
2019-04-06T05:08:09.506Z,73
2019-04-06T05:09:11.594Z,73
2019-04-06T05:10:13.798Z,73
2019-04-06T05:11:16.103Z,73
2019-04-06T05:12:18.154Z,73
2019-04-06T05:13:20.287Z,73
2019-04-06T05:14:22.525Z,73
2019-04-06T05:15:24.618Z,73
2019-04-06T05:16:26.790Z,73
2019-04-06T05:17:29.089Z,73
2019-04-06T05:18:31.590Z,73
2019-04-06T05:19:33.627Z,74
2019-04-06T05:20:35.785Z,73
2019-04-06T05:21:38.046Z,73
2019-04-06T05:22:40.532Z,73
2019-04-06T05:23:42.584Z,73
2019-04-06T05:24:44.857Z,73
2019-04-06T05:25:46.890Z,73
2019-04-06T05:26:49.079Z,73
2019-04-06T05:27:54.401Z,74
2019-04-06T05:28:56.444Z,74
2019-04-06T05:29:58.911Z,73
2019-04-06T05:31:00.951Z,73
2019-04-06T05:32:03.287Z,73
2019-04-06T05:33:05.993Z,73
2019-04-06T05:34:08.051Z,72
2019-04-06T05:35:10.960Z,72
2019-04-06T05:36:13.165Z,72
2019-04-06T05:37:15.195Z,73
2019-04-06T05:38:17.238Z,72
2019-04-06T05:39:19.326Z,72
2019-04-06T05:40:21.496Z,72
2019-04-06T05:41:23.745Z,72
2019-04-06T05:42:26.164Z,73
2019-04-06T05:43:28.594Z,73
2019-04-06T05:44:31.427Z,73
2019-04-06T05:45:34.121Z,74
2019-04-06T05:46:36.269Z,74
2019-04-06T05:47:38.755Z,73
2019-04-06T05:48:40.970Z,73
2019-04-06T05:49:43.072Z,73
2019-04-06T05:50:45.228Z,73
2019-04-06T05:51:47.302Z,73
2019-04-06T05:52:49.329Z,73
2019-04-06T05:53:51.534Z,73
2019-04-06T05:54:53.817Z,73
2019-04-06T05:55:55.919Z,74
2019-04-06T05:56:58.173Z,74
2019-04-06T05:58:11.885Z,74
2019-04-06T05:59:14.254Z,73
2019-04-06T06:00:16.958Z,73
2019-04-06T06:01:19.343Z,73
2019-04-06T06:02:22.364Z,73
2019-04-06T06:03:24.801Z,73
2019-04-06T06:04:27.275Z,72
2019-04-06T06:05:29.310Z,73
2019-04-06T06:06:31.354Z,74
2019-04-06T06:07:34.133Z,74
2019-04-06T06:08:36.952Z,74
2019-04-06T06:09:39.504Z,74
2019-04-06T06:10:41.738Z,74
2019-04-06T06:11:43.845Z,74
2019-04-06T06:12:45.990Z,74
2019-04-06T06:13:48.312Z,74
2019-04-06T06:14:50.775Z,74
2019-04-06T06:15:53.257Z,73
2019-04-06T06:16:55.426Z,73
2019-04-06T06:17:57.554Z,73
2019-04-06T06:18:59.711Z,73
2019-04-06T06:20:01.775Z,72
2019-04-06T06:21:04.040Z,73
2019-04-06T06:22:06.854Z,73
2019-04-06T06:23:09.132Z,72
2019-04-06T06:24:11.186Z,72
2019-04-06T06:25:14.306Z,73
2019-04-06T06:26:17.604Z,72
2019-04-06T06:27:19.976Z,72
2019-04-06T06:28:25.038Z,72
2019-04-06T06:29:27.247Z,72
2019-04-06T06:30:29.974Z,72
2019-04-06T06:31:32.177Z,72
2019-04-06T06:32:34.475Z,72
2019-04-06T06:33:36.675Z,72
2019-04-06T06:34:39.045Z,72
2019-04-06T06:35:41.369Z,72
2019-04-06T06:36:43.683Z,72
2019-04-06T06:37:45.715Z,72
2019-04-06T06:38:48.030Z,72
2019-04-06T06:39:50.113Z,73
2019-04-06T06:40:52.240Z,72
2019-04-06T06:41:54.488Z,72
2019-04-06T06:42:56.532Z,72
2019-04-06T06:43:58.593Z,72
2019-04-06T06:45:00.921Z,72
2019-04-06T06:46:03.680Z,73
2019-04-06T06:47:05.930Z,72
2019-04-06T06:48:08.237Z,72
2019-04-06T06:49:10.429Z,72
2019-04-06T06:50:12.648Z,71
2019-04-06T06:51:14.889Z,71
2019-04-06T06:52:17.291Z,71
2019-04-06T06:53:19.506Z,71
2019-04-06T06:54:22.027Z,70
2019-04-06T06:55:26.521Z,71
2019-04-06T06:56:29.547Z,71
2019-04-06T06:57:31.761Z,71
2019-04-06T06:58:33.824Z,72
2019-04-06T06:59:35.856Z,71
2019-04-06T07:00:38.019Z,70
2019-04-06T07:01:40.334Z,71
2019-04-06T07:02:42.503Z,70
2019-04-06T07:03:45.280Z,70
2019-04-06T07:04:47.638Z,71
2019-04-06T07:05:50.371Z,70
2019-04-06T07:06:52.874Z,71
2019-04-06T07:07:55.034Z,70
2019-04-06T07:08:57.339Z,70
2019-04-06T07:10:07.619Z,69
2019-04-06T07:11:10.134Z,68
2019-04-06T07:12:12.610Z,68
2019-04-06T07:13:14.849Z,69
2019-04-06T07:14:17.826Z,68
2019-04-06T07:15:20.819Z,67
2019-04-06T07:16:23.161Z,68
2019-04-06T07:17:25.262Z,68
2019-04-06T07:18:27.359Z,68
2019-04-06T07:19:29.943Z,67
2019-04-06T07:20:32.559Z,67
2019-04-06T07:21:35.182Z,67
2019-04-06T07:22:37.766Z,67
2019-04-06T07:23:39.987Z,67
2019-04-06T07:24:42.070Z,66
2019-04-06T07:25:56.530Z,66
2019-04-06T07:27:01.353Z,66
2019-04-06T07:28:03.495Z,67
2019-04-06T07:29:05.551Z,66
2019-04-06T07:30:08.006Z,65
2019-04-06T07:31:10.821Z,64
2019-04-06T07:32:13.261Z,64
2019-04-06T07:33:15.918Z,65
2019-04-06T07:34:18.172Z,64
2019-04-06T07:35:20.420Z,65
2019-04-06T07:36:22.602Z,63
2019-04-06T07:37:24.838Z,64
2019-04-06T07:38:27.457Z,64
2019-04-06T07:39:29.667Z,63
2019-04-06T07:40:31.802Z,64
2019-04-06T07:41:34.760Z,63
2019-04-06T07:42:37.300Z,63
2019-04-06T07:43:39.507Z,63
2019-04-06T07:44:41.859Z,63
2019-04-06T07:45:44.030Z,63
2019-04-06T07:46:46.202Z,63
2019-04-06T07:47:48.824Z,63
2019-04-06T07:48:51.587Z,62
2019-04-06T07:49:53.858Z,62
2019-04-06T07:50:56.387Z,62
2019-04-06T07:51:58.931Z,61
2019-04-06T07:53:01.169Z,61
2019-04-06T07:54:03.850Z,62
2019-04-06T07:55:06.427Z,62
2019-04-06T07:56:09.294Z,61
2019-04-06T07:57:12.039Z,62
2019-04-06T07:58:14.371Z,61
2019-04-06T07:59:16.951Z,61
2019-04-06T08:00:19.263Z,60
2019-04-06T08:01:21.342Z,60
2019-04-06T08:02:23.569Z,60
2019-04-06T08:03:25.771Z,60
2019-04-06T08:04:28.313Z,59
2019-04-06T08:05:30.925Z,59
2019-04-06T08:06:33.068Z,58
2019-04-06T08:07:35.784Z,58
2019-04-06T08:08:37.923Z,58
2019-04-06T08:09:40.092Z,58
2019-04-06T08:10:42.133Z,58
2019-04-06T08:11:44.705Z,58
2019-04-06T08:12:46.911Z,57
2019-04-06T08:13:49.006Z,57
2019-04-06T08:14:51.417Z,59
2019-04-06T08:15:53.673Z,58
2019-04-06T08:16:56.620Z,57
2019-04-06T08:17:58.863Z,57
2019-04-06T08:19:01.056Z,57
2019-04-06T08:20:03.754Z,58
2019-04-06T08:21:06.052Z,58
2019-04-06T08:22:08.174Z,57
2019-04-06T08:23:10.463Z,57
2019-04-06T08:24:13.375Z,58
2019-04-06T08:25:15.842Z,58
2019-04-06T08:26:18.215Z,58
2019-04-06T08:27:20.537Z,57
2019-04-06T08:28:23.508Z,57
2019-04-06T08:29:25.745Z,57
2019-04-06T08:30:28.746Z,57
2019-04-06T08:31:31.111Z,57
2019-04-06T08:32:33.759Z,57
2019-04-06T08:33:36.397Z,57
2019-04-06T08:34:38.720Z,57
2019-04-06T08:35:41.016Z,57
2019-04-06T08:36:43.295Z,57
2019-04-06T08:37:46.110Z,57
2019-04-06T08:38:48.383Z,57
2019-04-06T08:39:51.009Z,56
2019-04-06T08:40:53.822Z,54
2019-04-06T08:41:56.616Z,54
2019-04-06T08:42:58.971Z,54
2019-04-06T08:44:01.136Z,53
2019-04-06T08:45:03.506Z,52
2019-04-06T08:46:05.888Z,51
2019-04-06T08:47:08.951Z,50
2019-04-06T08:48:11.317Z,51
2019-04-06T08:49:13.364Z,50
2019-04-06T08:50:15.953Z,50
2019-04-06T08:51:18.032Z,49
2019-04-06T08:52:20.074Z,50
2019-04-06T08:53:22.518Z,49
2019-04-06T08:54:25.051Z,49
2019-04-06T08:55:27.385Z,49
2019-04-06T08:56:29.912Z,48
2019-04-06T08:57:32.032Z,48
2019-04-06T08:58:34.682Z,48
2019-04-06T08:59:36.902Z,47
2019-04-06T09:00:39.520Z,47
2019-04-06T09:01:42.425Z,46
2019-04-06T09:02:45.297Z,45
2019-04-06T09:03:47.827Z,45
2019-04-06T09:04:50.279Z,46
2019-04-06T09:05:53.004Z,47
2019-04-06T09:06:55.354Z,46
2019-04-06T09:07:58.242Z,46
2019-04-06T09:09:01.125Z,45
2019-04-06T09:10:03.459Z,45
2019-04-06T09:11:05.891Z,45
2019-04-06T09:12:07.993Z,45
2019-04-06T09:13:10.259Z,45
2019-04-06T09:14:12.881Z,44
2019-04-06T09:15:15.159Z,45
2019-04-06T09:16:17.455Z,43
2019-04-06T09:17:19.973Z,44
2019-04-06T09:18:22.309Z,43
2019-04-06T09:19:24.638Z,43
2019-04-06T09:20:27.015Z,44
2019-04-06T09:21:29.461Z,43
2019-04-06T09:22:32.138Z,44
2019-04-06T09:23:34.175Z,44
2019-04-06T09:24:36.458Z,43
2019-04-06T09:25:39.339Z,43
2019-04-06T09:26:41.978Z,43
2019-04-06T09:27:44.365Z,43
2019-04-06T09:28:47.051Z,44
2019-04-06T09:29:49.225Z,41
2019-04-06T09:30:51.845Z,41
2019-04-06T09:31:54.139Z,41
2019-04-06T09:32:56.387Z,41
2019-04-06T09:33:58.648Z,42
2019-04-06T09:35:00.708Z,41
2019-04-06T09:36:03.708Z,42
2019-04-06T09:37:06.534Z,42
2019-04-06T09:38:09.040Z,40
2019-04-06T09:39:11.113Z,39
2019-04-06T09:40:13.541Z,41
2019-04-06T09:41:16.285Z,39
2019-04-06T09:42:18.395Z,38
2019-04-06T09:43:20.767Z,38
2019-04-06T09:44:23.048Z,37
2019-04-06T09:45:25.763Z,37
2019-04-06T09:46:28.144Z,37
2019-04-06T09:47:30.544Z,37
2019-04-06T09:48:32.991Z,35
2019-04-06T09:49:35.575Z,35
2019-04-06T09:50:38.042Z,35
2019-04-06T09:51:40.395Z,36
2019-04-06T09:52:42.709Z,35
2019-04-06T09:53:45.304Z,36
2019-04-06T09:54:47.884Z,36
2019-04-06T09:55:50.505Z,35
2019-04-06T09:56:52.821Z,35
2019-04-06T09:57:55.035Z,36
2019-04-06T09:58:57.481Z,35
2019-04-06T09:59:59.758Z,34
2019-04-06T10:01:01.843Z,34
2019-04-06T10:02:05.448Z,34
2019-04-06T10:03:07.742Z,34
2019-04-06T10:04:09.900Z,34
2019-04-06T10:05:12.172Z,34
2019-04-06T10:06:14.563Z,33
2019-04-06T10:07:16.731Z,35
2019-04-06T10:08:19.887Z,34
2019-04-06T10:09:22.509Z,34
2019-04-06T10:10:24.604Z,33
2019-04-06T10:11:26.964Z,34
2019-04-06T10:12:29.427Z,34
2019-04-06T10:13:31.890Z,34
2019-04-06T10:14:33.993Z,34
2019-04-06T10:15:36.201Z,33
2019-04-06T10:16:38.251Z,32
2019-04-06T10:17:40.542Z,34
2019-04-06T10:18:43.264Z,34
2019-04-06T10:19:45.708Z,33
2019-04-06T10:20:47.927Z,32
2019-04-06T10:21:50.848Z,32
2019-04-06T10:22:53.195Z,31
2019-04-06T10:23:55.332Z,32
2019-04-06T10:24:57.697Z,31
2019-04-06T10:26:00.442Z,33
2019-04-06T10:27:03.174Z,34
2019-04-06T10:28:06.014Z,33
2019-04-06T10:29:08.627Z,32
2019-04-06T10:30:11.336Z,32
2019-04-06T10:31:13.435Z,31
2019-04-06T10:32:15.842Z,32
2019-04-06T10:33:18.147Z,31
2019-04-06T10:34:20.717Z,32
2019-04-06T10:35:23.222Z,31
2019-04-06T10:36:25.709Z,32
2019-04-06T10:37:27.754Z,32
2019-04-06T10:38:29.981Z,31
2019-04-06T10:39:32.366Z,30
2019-04-06T10:40:34.883Z,31
2019-04-06T10:41:37.023Z,31
2019-04-06T10:42:39.631Z,30
2019-04-06T10:43:42.069Z,30
2019-04-06T10:44:44.328Z,30
2019-04-06T10:45:46.599Z,31
2019-04-06T10:46:49.111Z,29
2019-04-06T10:47:51.781Z,29
2019-04-06T10:48:54.474Z,31
2019-04-06T10:49:56.824Z,30
2019-04-06T10:50:59.480Z,29
2019-04-06T10:52:01.950Z,27
2019-04-06T10:53:04.025Z,28
2019-04-06T10:54:06.361Z,27
2019-04-06T10:55:08.817Z,27
2019-04-06T10:56:12.354Z,26
2019-04-06T10:57:14.594Z,26
2019-04-06T10:58:16.966Z,26
2019-04-06T10:59:19.551Z,27
2019-04-06T11:00:22.019Z,27
2019-04-06T11:01:24.907Z,26
2019-04-06T11:02:27.771Z,26
2019-04-06T11:03:30.255Z,26
2019-04-06T11:04:33.186Z,26
2019-04-06T11:05:36.387Z,26
2019-04-06T11:06:38.744Z,26
2019-04-06T11:07:41.248Z,26
2019-04-06T11:08:43.612Z,26
2019-04-06T11:09:45.988Z,25
2019-04-06T11:10:48.379Z,25
2019-04-06T11:11:50.701Z,25
2019-04-06T11:12:53.050Z,26
2019-04-06T11:13:55.608Z,25
2019-04-06T11:14:58.269Z,26
2019-04-06T11:16:01.232Z,26
2019-04-06T11:17:03.659Z,25
2019-04-06T11:18:05.858Z,25
2019-04-06T11:19:08.196Z,25
2019-04-06T11:20:10.521Z,25
2019-04-06T11:21:12.965Z,25
2019-04-06T11:22:18.490Z,25
2019-04-06T11:23:21.407Z,25
2019-04-06T11:24:23.573Z,25
2019-04-06T11:25:26.012Z,24
2019-04-06T11:26:28.655Z,25
2019-04-06T11:27:30.737Z,24
2019-04-06T11:28:32.863Z,24
2019-04-06T11:29:35.162Z,24
2019-04-06T11:30:37.580Z,24
2019-04-06T11:31:39.964Z,24
2019-04-06T11:32:42.516Z,24
2019-04-06T11:33:44.798Z,24
2019-04-06T11:34:47.170Z,25
2019-04-06T11:35:49.612Z,24
2019-04-06T11:36:52.053Z,24
2019-04-06T11:37:54.528Z,24
2019-04-06T11:38:57.067Z,24
2019-04-06T11:39:59.124Z,24
2019-04-06T11:41:01.502Z,25
2019-04-06T11:42:05.232Z,24
2019-04-06T11:43:07.817Z,24
2019-04-06T11:44:10.494Z,24
2019-04-06T11:45:13.100Z,24
2019-04-06T11:46:15.419Z,24
2019-04-06T11:47:17.757Z,24
2019-04-06T11:48:20.620Z,24
2019-04-06T11:49:22.977Z,25
2019-04-06T11:50:25.369Z,25
2019-04-06T11:51:27.565Z,24
2019-04-06T11:52:29.956Z,23
2019-04-06T11:53:32.367Z,24
2019-04-06T11:54:34.447Z,24
2019-04-06T11:55:36.561Z,24
2019-04-06T11:56:39.378Z,25
2019-04-06T11:57:41.637Z,24
2019-04-06T11:58:43.888Z,25
2019-04-06T11:59:45.944Z,24
2019-04-06T12:00:48.372Z,24
2019-04-06T12:01:50.938Z,24
2019-04-06T12:02:53.621Z,24
2019-04-06T12:03:55.958Z,24
2019-04-06T12:04:58.544Z,24
2019-04-06T12:06:01.118Z,24
2019-04-06T12:07:03.495Z,24
2019-04-06T12:08:07.782Z,24
2019-04-06T12:09:10.621Z,24
2019-04-06T12:10:12.945Z,24
2019-04-06T12:11:15.197Z,23
2019-04-06T12:12:17.520Z,24
2019-04-06T12:13:20.336Z,24
2019-04-06T12:14:22.991Z,24
2019-04-06T12:15:25.690Z,25
2019-04-06T12:16:28.055Z,24
2019-04-06T12:17:30.375Z,24
2019-04-06T12:18:33.269Z,24
2019-04-06T12:19:35.929Z,23
2019-04-06T12:20:38.503Z,23
2019-04-06T12:21:40.739Z,23
2019-04-06T12:22:43.380Z,23
2019-04-06T12:23:45.879Z,24
2019-04-06T12:24:48.352Z,24
2019-04-06T12:25:50.437Z,24
2019-04-06T12:26:52.887Z,24
2019-04-06T12:27:54.974Z,25
2019-04-06T12:28:57.046Z,24
2019-04-06T12:29:59.727Z,24
2019-04-06T12:31:01.976Z,23
2019-04-06T12:32:04.827Z,23
2019-04-06T12:33:07.225Z,23
2019-04-06T12:34:10.225Z,23
2019-04-06T12:35:12.620Z,24
2019-04-06T12:36:15.060Z,24
2019-04-06T12:37:17.461Z,24
2019-04-06T12:38:20.199Z,24
2019-04-06T12:39:22.582Z,24
2019-04-06T12:40:25.271Z,24
2019-04-06T12:41:27.746Z,24
2019-04-06T12:42:30.840Z,24
2019-04-06T12:43:33.311Z,24
2019-04-06T12:44:35.714Z,24
2019-04-06T12:45:38.829Z,24
2019-04-06T12:46:40.897Z,24
2019-04-06T12:47:43.948Z,24
2019-04-06T12:48:46.431Z,23
2019-04-06T12:49:49.509Z,23
2019-04-06T12:50:52.246Z,23
2019-04-06T12:51:54.664Z,22
2019-04-06T12:52:58.363Z,22
2019-04-06T12:54:01.519Z,22
2019-04-06T12:55:05.780Z,22
2019-04-06T12:56:08.160Z,21
2019-04-06T12:57:10.545Z,21
2019-04-06T12:58:12.954Z,21
2019-04-06T12:59:15.113Z,21
2019-04-06T13:00:17.357Z,21
2019-04-06T13:01:20.231Z,21
2019-04-06T13:02:23.344Z,21
2019-04-06T13:03:25.746Z,21
2019-04-06T13:04:27.817Z,21
2019-04-06T13:05:30.097Z,21
2019-04-06T13:06:32.566Z,21
2019-04-06T13:07:35.279Z,20
2019-04-06T13:08:37.816Z,21
2019-04-06T13:09:40.095Z,21
2019-04-06T13:10:42.281Z,21
2019-04-06T13:11:45.310Z,22
2019-04-06T13:12:48.364Z,22
2019-04-06T13:13:50.514Z,21
2019-04-06T13:14:52.669Z,21
2019-04-06T13:15:54.828Z,21
2019-04-06T13:16:56.920Z,21
2019-04-06T13:17:58.974Z,21
2019-04-06T13:19:01.597Z,21
2019-04-06T13:20:04.809Z,21
2019-04-06T13:21:06.864Z,21
2019-04-06T13:22:09.278Z,21
2019-04-06T13:23:12.077Z,21
2019-04-06T13:24:14.414Z,21
2019-04-06T13:25:17.649Z,21
2019-04-06T13:26:20.348Z,21
2019-04-06T13:27:23.206Z,20
2019-04-06T13:28:25.954Z,21
2019-04-06T13:29:29.142Z,21
2019-04-06T13:30:31.585Z,21
2019-04-06T13:31:34.021Z,21
2019-04-06T13:32:36.783Z,21
2019-04-06T13:33:39.761Z,21
2019-04-06T13:34:42.528Z,21
2019-04-06T13:35:45.015Z,21
2019-04-06T13:36:47.524Z,22
2019-04-06T13:37:50.210Z,22
2019-04-06T13:38:53.292Z,22
2019-04-06T13:39:55.662Z,22
2019-04-06T13:40:58.662Z,22
2019-04-06T13:42:01.054Z,22
2019-04-06T13:43:03.431Z,22
2019-04-06T13:44:06.246Z,21
2019-04-06T13:45:08.618Z,21
2019-04-06T13:46:11.231Z,22
2019-04-06T13:47:14.611Z,22
2019-04-06T13:48:17.353Z,22
2019-04-06T13:49:19.892Z,22
2019-04-06T13:50:22.793Z,22
2019-04-06T13:51:25.222Z,22
2019-04-06T13:52:28.570Z,22
2019-04-06T13:53:31.341Z,23
2019-04-06T13:54:34.403Z,22
2019-04-06T13:55:36.804Z,22
2019-04-06T13:56:39.610Z,22
2019-04-06T13:57:41.958Z,22
2019-04-06T13:58:44.156Z,22
2019-04-06T13:59:46.447Z,22
2019-04-06T14:00:49.665Z,21
2019-04-06T14:01:52.292Z,21
2019-04-06T14:02:54.817Z,22
2019-04-06T14:03:57.377Z,22
2019-04-06T14:05:01.143Z,22
2019-04-06T14:06:03.970Z,22
2019-04-06T14:07:07.018Z,22
2019-04-06T14:08:09.822Z,22
2019-04-06T14:09:12.132Z,22
2019-04-06T14:10:14.476Z,21
2019-04-06T14:11:16.856Z,21
2019-04-06T14:12:19.780Z,21
2019-04-06T14:13:21.860Z,21
2019-04-06T14:14:24.173Z,21
2019-04-06T14:15:26.958Z,22
2019-04-06T14:16:29.317Z,21
2019-04-06T14:17:32.067Z,21
2019-04-06T14:18:34.517Z,21
2019-04-06T14:19:37.077Z,22
2019-04-06T14:20:39.385Z,21
2019-04-06T14:21:42.307Z,21
2019-04-06T14:22:45.395Z,21
2019-04-06T14:23:51.883Z,21
2019-04-06T14:24:54.334Z,21
2019-04-06T14:25:57.310Z,22
2019-04-06T14:26:59.821Z,22
2019-04-06T14:28:03.248Z,22
2019-04-06T14:29:05.392Z,22
2019-04-06T14:30:07.847Z,21
2019-04-06T14:31:10.178Z,21
2019-04-06T14:32:12.572Z,21
2019-04-06T14:33:14.671Z,21
2019-04-06T14:34:17.270Z,21
2019-04-06T14:35:19.355Z,21
2019-04-06T14:36:21.881Z,21
2019-04-06T14:37:24.352Z,21
2019-04-06T14:38:27.517Z,22
2019-04-06T14:39:30.270Z,21
2019-04-06T14:40:32.981Z,21
2019-04-06T14:41:35.726Z,21
2019-04-06T14:42:38.613Z,21
2019-04-06T14:43:41.358Z,21
2019-04-06T14:44:43.430Z,21
2019-04-06T14:45:45.862Z,21
2019-04-06T14:46:48.297Z,20
2019-04-06T14:47:50.617Z,21
2019-04-06T14:48:53.085Z,21
2019-04-06T14:49:55.416Z,21
2019-04-06T14:50:58.503Z,21
2019-04-06T14:52:00.975Z,21